createdAt,value
2022-08-08T00:02:04.260Z,4.10
2022-08-08T00:04:49.167Z,4.53
2022-08-08T00:07:40.312Z,4.07
2022-08-08T00:10:33.839Z,4.17
2022-08-08T00:14:16.733Z,3.93
2022-08-08T00:16:16.882Z,3.97
2022-08-08T00:19:00.050Z,3.30
2022-08-08T00:21:39.344Z,3.93
2022-08-08T00:24:33.765Z,2.97
2022-08-08T00:27:07.272Z,3.03
2022-08-08T00:29:54.215Z,3.50
2022-08-08T00:32:46.943Z,3.87
2022-08-08T00:35:53.699Z,3.40
2022-08-08T00:38:51.659Z,2.93
2022-08-08T00:41:54.902Z,3.73
2022-08-08T00:45:03.493Z,3.13
2022-08-08T00:48:30.203Z,3.10
2022-08-08T00:51:10.924Z,3.33
2022-08-08T00:54:04.356Z,3.20
2022-08-08T00:57:19.627Z,3.27
2022-08-08T01:00:34.529Z,3.60
2022-08-08T01:04:01.661Z,3.87
2022-08-08T01:07:10.983Z,3.63
2022-08-08T01:10:28.550Z,3.50
2022-08-08T01:13:43.797Z,3.07
2022-08-08T01:17:25.271Z,2.67
2022-08-08T01:21:07.285Z,3.57
2022-08-08T01:24:16.511Z,3.50
2022-08-08T01:27:24.271Z,3.57
2022-08-08T01:30:47.224Z,4.10
2022-08-08T01:34:04.956Z,3.63
2022-08-08T01:37:21.601Z,3.17
2022-08-08T01:40:14.633Z,3.20
2022-08-08T01:43:05.356Z,5.43
2022-08-08T01:45:56.495Z,3.60
2022-08-08T01:48:59.514Z,3.90
2022-08-08T01:53:55.689Z,4.43
2022-08-08T01:56:27.088Z,3.50
2022-08-08T01:58:39.557Z,3.87
2022-08-08T02:01:28.147Z,3.17
2022-08-08T02:04:47.524Z,3.93
2022-08-08T02:07:57.500Z,3.90
2022-08-08T02:11:05.834Z,3.80
2022-08-08T02:13:55.916Z,3.60
2022-08-08T02:17:10.570Z,3.80
2022-08-08T02:20:09.394Z,3.03
2022-08-08T02:23:05.597Z,3.30
2022-08-08T02:26:03.380Z,3.97
2022-08-08T02:28:48.327Z,3.57
2022-08-08T02:31:58.909Z,3.53
2022-08-08T02:35:11.063Z,3.63
2022-08-08T02:38:00.186Z,2.93
2022-08-08T02:41:58.013Z,3.80
2022-08-08T02:44:37.557Z,3.30
2022-08-08T02:47:54.760Z,4.03
2022-08-08T02:50:31.305Z,3.20
2022-08-08T02:53:24.144Z,3.70
2022-08-08T02:56:30.111Z,3.60
2022-08-08T02:59:17.431Z,3.40
2022-08-08T03:02:20.618Z,3.40
2022-08-08T03:05:45.467Z,3.03
2022-08-08T03:08:27.555Z,4.00
2022-08-08T03:12:01.850Z,3.90
2022-08-08T03:15:59.701Z,3.50
2022-08-08T03:18:31.336Z,3.00
2022-08-08T03:20:58.693Z,3.20
2022-08-08T03:23:56.418Z,3.70
2022-08-08T03:26:31.021Z,3.80
2022-08-08T03:29:04.680Z,3.00
2022-08-08T03:32:08.441Z,3.83
2022-08-08T03:34:39.767Z,3.40
2022-08-08T03:37:59.037Z,3.00
2022-08-08T03:40:02.426Z,3.17
2022-08-08T03:42:32.157Z,3.70
2022-08-08T03:44:59.531Z,3.37
2022-08-08T03:47:39.448Z,3.30
2022-08-08T03:50:19.682Z,3.63
2022-08-08T03:52:47.645Z,3.40
2022-08-08T03:55:55.618Z,3.03
2022-08-08T03:58:35.414Z,3.23
2022-08-08T04:01:01.867Z,3.03
2022-08-08T04:03:57.505Z,3.17
2022-08-08T04:06:23.825Z,3.57
2022-08-08T04:08:56.696Z,3.30
2022-08-08T04:11:25.326Z,3.33
2022-08-08T04:14:03.581Z,3.93
2022-08-08T04:16:41.442Z,3.60
2022-08-08T04:19:23.682Z,3.70
2022-08-08T04:21:54.180Z,3.73
2022-08-08T04:24:30.435Z,4.20
2022-08-08T04:26:59.567Z,3.73
2022-08-08T04:29:33.275Z,3.80
2022-08-08T04:32:06.793Z,2.73
2022-08-08T04:34:49.361Z,3.57
2022-08-08T04:37:31.603Z,3.10
2022-08-08T04:40:06.998Z,3.53
2022-08-08T04:42:37.319Z,3.30
2022-08-08T04:45:13.885Z,2.83
2022-08-08T04:47:46.114Z,3.90
2022-08-08T04:50:24.213Z,3.87
2022-08-08T04:52:58.942Z,3.83
2022-08-08T04:55:29.238Z,4.17
2022-08-08T04:58:17.629Z,3.10
2022-08-08T05:00:48.348Z,3.43
2022-08-08T05:03:18.771Z,2.70
2022-08-08T05:06:12.732Z,2.83
2022-08-08T05:08:44.546Z,3.20
2022-08-08T05:11:22.738Z,3.20
2022-08-08T05:13:57.670Z,2.87
2022-08-08T05:16:53.642Z,3.37
2022-08-08T05:20:04.154Z,2.80
2022-08-08T05:22:07.337Z,3.87
2022-08-08T05:24:37.350Z,2.60
2022-08-08T05:27:05.890Z,3.50
2022-08-08T05:29:35.781Z,2.80
2022-08-08T05:32:07.351Z,3.00
2022-08-08T05:34:37.420Z,2.47
2022-08-08T05:37:07.497Z,2.70
2022-08-08T05:39:48.218Z,3.27
2022-08-08T05:42:15.658Z,2.60
2022-08-08T05:44:51.889Z,2.53
2022-08-08T05:47:22.036Z,2.60
2022-08-08T05:49:54.153Z,2.57
2022-08-08T05:52:31.912Z,2.60
2022-08-08T05:55:07.258Z,3.03
2022-08-08T05:58:05.454Z,3.20
2022-08-08T06:00:34.095Z,2.80
2022-08-08T06:03:17.208Z,2.23
2022-08-08T06:05:59.267Z,2.50
2022-08-08T06:08:53.335Z,3.37
2022-08-08T06:11:23.214Z,2.93
2022-08-08T06:13:55.416Z,2.77
2022-08-08T06:16:27.299Z,2.60
2022-08-08T06:19:00.857Z,2.57
2022-08-08T06:21:49.030Z,3.00
2022-08-08T06:24:23.257Z,2.33
2022-08-08T06:27:04.988Z,2.40
2022-08-08T06:29:59.529Z,2.40
2022-08-08T06:32:33.942Z,2.37
2022-08-08T06:36:04.620Z,2.17
2022-08-08T06:38:01.647Z,2.40
2022-08-08T06:40:36.670Z,3.00
2022-08-08T06:43:10.637Z,1.90
2022-08-08T06:45:39.330Z,2.70
2022-08-08T06:48:06.781Z,2.70
2022-08-08T06:50:38.650Z,2.57
2022-08-08T06:53:17.426Z,2.30
2022-08-08T06:56:02.188Z,2.40
2022-08-08T06:58:33.684Z,2.23
2022-08-08T07:01:52.819Z,2.73
2022-08-08T07:04:39.645Z,2.53
2022-08-08T07:07:12.296Z,2.37
2022-08-08T07:10:21.337Z,2.20
2022-08-08T07:12:56.012Z,2.50
2022-08-08T07:16:10.221Z,2.53
2022-08-08T07:19:02.493Z,2.53
2022-08-08T07:21:39.933Z,1.90
2022-08-08T07:24:19.492Z,2.60
2022-08-08T07:26:53.943Z,2.63
2022-08-08T07:30:02.586Z,1.80
2022-08-08T07:32:17.174Z,2.30
2022-08-08T07:35:00.251Z,2.00
2022-08-08T07:37:56.282Z,2.07
2022-08-08T07:40:21.168Z,2.00
2022-08-08T07:42:57.039Z,1.93
2022-08-08T07:45:26.385Z,1.97
2022-08-08T07:48:05.208Z,2.30
2022-08-08T07:50:34.882Z,3.47
2022-08-08T07:54:02.085Z,1.85
2022-08-08T07:56:36.227Z,1.90
2022-08-08T07:59:14.655Z,1.95
2022-08-08T08:02:33.609Z,2.45
2022-08-08T08:04:49.305Z,2.05
2022-08-08T08:07:26.933Z,2.28
2022-08-08T08:10:04.469Z,1.80
2022-08-08T08:12:41.243Z,2.08
2022-08-08T08:15:16.009Z,2.35
2022-08-08T08:17:55.680Z,1.70
2022-08-08T08:20:30.125Z,1.38
2022-08-08T08:22:57.649Z,1.55
2022-08-08T08:25:40.946Z,1.33
2022-08-08T08:28:21.147Z,1.67
2022-08-08T08:30:51.783Z,1.35
2022-08-08T08:33:20.571Z,1.40
2022-08-08T08:36:18.414Z,1.48
2022-08-08T08:38:36.278Z,1.87
2022-08-08T08:41:17.051Z,1.30
2022-08-08T08:43:46.465Z,1.30
2022-08-08T08:46:17.528Z,1.33
2022-08-08T08:48:49.385Z,1.40
2022-08-08T08:51:17.928Z,1.53
2022-08-08T08:54:01.057Z,1.43
2022-08-08T08:56:29.494Z,4.20
2022-08-08T08:58:58.360Z,2.97
2022-08-08T09:01:51.028Z,0.80
2022-08-08T09:04:31.697Z,1.35
2022-08-08T09:07:12.949Z,1.27
2022-08-08T09:09:48.194Z,1.40
2022-08-08T09:12:25.884Z,1.13
2022-08-08T09:14:59.014Z,1.10
2022-08-08T09:17:40.904Z,1.20
2022-08-08T09:21:58.262Z,1.30
2022-08-08T09:22:59.075Z,1.27
2022-08-08T09:25:36.233Z,1.17
2022-08-08T09:28:35.208Z,1.23
2022-08-08T09:31:13.543Z,1.40
2022-08-08T09:34:30.189Z,1.13
2022-08-08T09:36:35.996Z,1.02
2022-08-08T09:39:10.199Z,1.17
2022-08-08T09:42:14.259Z,1.05
2022-08-08T09:45:20.720Z,0.80
2022-08-08T09:48:16.151Z,1.10
2022-08-08T09:50:50.876Z,2.10
2022-08-08T09:53:31.659Z,1.05
2022-08-08T09:56:12.659Z,0.90
2022-08-08T09:59:32.028Z,0.95
2022-08-08T10:02:02.832Z,1.02
2022-08-08T10:04:41.877Z,1.10
2022-08-08T10:07:15.950Z,1.33
2022-08-08T10:09:59.431Z,1.10
2022-08-08T10:12:38.616Z,1.30
2022-08-08T10:15:24.205Z,1.10
2022-08-08T10:18:05.540Z,1.35
2022-08-08T10:20:58.179Z,1.13
2022-08-08T10:23:58.670Z,1.17
2022-08-08T10:26:57.660Z,1.43
2022-08-08T10:29:56.878Z,1.10
2022-08-08T10:32:34.014Z,1.33
2022-08-08T10:36:06.299Z,1.00
2022-08-08T10:38:07.915Z,1.63
2022-08-08T10:40:39.040Z,2.37
2022-08-08T10:43:10.040Z,1.50
2022-08-08T10:45:55.936Z,1.47
2022-08-08T10:48:35.925Z,1.30
2022-08-08T10:51:13.923Z,1.60
2022-08-08T10:53:58.865Z,1.53
2022-08-08T10:56:32.239Z,1.50
2022-08-08T10:59:09.431Z,3.10
2022-08-08T11:01:41.757Z,2.00
2022-08-08T11:04:10.657Z,1.93
2022-08-08T11:06:41.697Z,1.60
2022-08-08T11:09:19.741Z,1.80
2022-08-08T11:12:06.384Z,1.83
2022-08-08T11:14:57.346Z,1.73
2022-08-08T11:17:59.606Z,2.00
2022-08-08T11:20:28.031Z,2.43
2022-08-08T11:23:05.700Z,2.07
2022-08-08T11:25:53.220Z,2.50
2022-08-08T11:28:29.546Z,2.30
2022-08-08T11:31:04.097Z,2.43
2022-08-08T11:33:52.627Z,2.53
2022-08-08T11:36:27.834Z,2.30
2022-08-08T11:38:57.338Z,2.40
2022-08-08T11:41:27.726Z,3.07
2022-08-08T11:43:59.812Z,2.00
2022-08-08T11:46:30.547Z,2.00
2022-08-08T11:49:04.059Z,2.67
2022-08-08T11:51:39.530Z,2.30
2022-08-08T11:54:26.644Z,1.90
2022-08-08T11:56:56.518Z,2.40
2022-08-08T12:00:00.677Z,2.63
2022-08-08T12:02:40.055Z,2.30
2022-08-08T12:05:13.405Z,2.63
2022-08-08T12:07:58.942Z,2.27
2022-08-08T12:10:30.221Z,1.80
2022-08-08T12:13:09.487Z,2.23
2022-08-08T12:15:46.870Z,2.03
2022-08-08T12:18:20.814Z,2.07
2022-08-08T12:20:50.704Z,2.07
2022-08-08T12:23:43.195Z,2.03
2022-08-08T12:26:28.606Z,2.40
2022-08-08T12:29:42.342Z,2.83
2022-08-08T12:32:20.769Z,2.73
2022-08-08T12:35:13.474Z,2.07
2022-08-08T12:38:01.373Z,2.33
2022-08-08T12:40:56.300Z,2.63
2022-08-08T12:43:46.286Z,2.83
2022-08-08T12:46:26.521Z,3.43
2022-08-08T12:51:58.941Z,2.50
2022-08-08T12:54:38.040Z,2.37
2022-08-08T12:57:26.177Z,2.80
2022-08-08T13:00:05.053Z,1.67
2022-08-08T13:02:51.433Z,2.30
2022-08-08T13:05:26.236Z,2.40
2022-08-08T13:08:20.475Z,2.10
2022-08-08T13:10:56.675Z,2.27
2022-08-08T13:13:37.212Z,2.67
2022-08-08T13:16:25.349Z,2.00
2022-08-08T13:19:00.601Z,1.97
2022-08-08T13:21:48.837Z,2.37
2022-08-08T13:24:38.703Z,2.50
2022-08-08T13:27:35.473Z,2.07
2022-08-08T13:30:06.565Z,2.53
2022-08-08T13:32:39.571Z,2.50
2022-08-08T13:35:29.709Z,2.87
2022-08-08T13:38:06.629Z,3.13
2022-08-08T13:40:35.546Z,2.60
2022-08-08T13:43:03.889Z,2.20
2022-08-08T13:45:31.608Z,2.47
2022-08-08T13:48:03.969Z,2.40
2022-08-08T13:50:49.132Z,2.50
2022-08-08T13:53:36.532Z,2.60
2022-08-08T13:56:10.919Z,2.37
2022-08-08T13:58:56.150Z,2.20
2022-08-08T14:01:32.935Z,2.50
2022-08-08T14:04:23.113Z,2.43
2022-08-08T14:07:01.522Z,2.07
2022-08-08T14:10:05.227Z,2.40
2022-08-08T14:12:30.265Z,2.70
2022-08-08T14:14:59.002Z,2.20
2022-08-08T14:17:57.845Z,1.83
2022-08-08T14:20:15.045Z,2.33
2022-08-08T14:23:20.782Z,2.80
2022-08-08T14:26:10.539Z,1.90
2022-08-08T14:28:39.837Z,2.23
2022-08-08T14:31:23.357Z,2.00
2022-08-08T14:33:58.156Z,2.10
2022-08-08T14:36:40.758Z,1.90
2022-08-08T14:39:20.607Z,2.10
2022-08-08T14:42:03.408Z,2.10
2022-08-08T14:44:35.559Z,2.57
2022-08-08T14:47:17.089Z,2.43
2022-08-08T14:50:06.809Z,2.70
2022-08-08T14:53:08.085Z,1.70
2022-08-08T14:55:41.953Z,2.03
2022-08-08T14:58:12.055Z,2.50
2022-08-08T15:00:48.674Z,2.10
2022-08-08T15:03:17.266Z,2.10
2022-08-08T15:05:53.865Z,1.80
2022-08-08T15:08:34.513Z,2.50
2022-08-08T15:11:06.563Z,2.10
2022-08-08T15:13:39.679Z,2.70
2022-08-08T15:16:12.219Z,1.90
2022-08-08T15:18:50.064Z,2.87
2022-08-08T15:21:20.620Z,2.57
2022-08-08T15:23:50.851Z,2.10
2022-08-08T15:26:20.285Z,1.97
2022-08-08T15:28:51.014Z,2.50
2022-08-08T15:31:55.955Z,1.80
2022-08-08T15:34:08.593Z,2.60
2022-08-08T15:36:47.578Z,2.17
2022-08-08T15:39:15.153Z,1.67
2022-08-08T15:41:45.740Z,10.00
2022-08-08T15:44:13.836Z,2.10
2022-08-08T15:46:45.138Z,3.43
2022-08-08T15:49:12.908Z,3.10
2022-08-08T15:51:44.190Z,2.27
2022-08-08T15:54:18.623Z,2.67
2022-08-08T15:56:58.311Z,1.90
2022-08-08T16:00:18.097Z,1.80
2022-08-08T16:02:14.301Z,2.20
2022-08-08T16:04:42.488Z,2.83
2022-08-08T16:07:09.731Z,3.27
2022-08-08T16:13:15.849Z,2.20
2022-08-08T16:13:27.172Z,2.10
2022-08-08T16:15:12.497Z,2.10
2022-08-08T16:18:06.484Z,2.60
2022-08-08T16:20:30.465Z,2.50
2022-08-08T16:22:57.588Z,1.80
2022-08-08T16:25:45.696Z,2.80
2022-08-08T16:28:22.854Z,2.87
2022-08-08T16:30:58.883Z,2.53
2022-08-08T16:33:38.019Z,2.17
2022-08-08T16:36:09.586Z,2.17
2022-08-08T16:38:44.456Z,2.27
2022-08-08T16:41:20.023Z,3.50
2022-08-08T16:43:49.141Z,3.03
2022-08-08T16:46:43.260Z,2.30
2022-08-08T16:49:08.927Z,2.10
2022-08-08T16:55:06.259Z,2.70
2022-08-08T16:55:06.852Z,2.30
2022-08-08T16:57:40.704Z,2.70
2022-08-08T17:00:08.946Z,2.10
2022-08-08T17:02:39.724Z,2.30
2022-08-08T17:05:08.763Z,2.33
2022-08-08T17:07:40.422Z,1.77
2022-08-08T17:10:11.725Z,2.33
2022-08-08T17:12:53.033Z,2.70
2022-08-08T17:15:22.841Z,5.03
2022-08-08T17:18:02.268Z,2.53
2022-08-08T17:20:38.064Z,2.43
2022-08-08T17:23:25.655Z,2.57
2022-08-08T17:25:55.586Z,2.47
2022-08-08T17:28:34.657Z,3.00
2022-08-08T17:31:43.226Z,4.00
2022-08-08T17:34:52.856Z,3.30
2022-08-08T17:37:00.540Z,3.43
2022-08-08T17:40:03.019Z,3.03
2022-08-08T17:42:18.399Z,3.03
2022-08-08T17:44:50.995Z,2.70
2022-08-08T17:47:37.475Z,2.43
2022-08-08T17:50:07.478Z,2.53
2022-08-08T17:52:37.408Z,2.60
2022-08-08T17:55:22.453Z,2.37
2022-08-08T17:57:53.599Z,2.37
2022-08-08T18:00:25.783Z,2.97
2022-08-08T18:03:08.057Z,2.50
2022-08-08T18:05:48.916Z,3.03
2022-08-08T18:08:25.198Z,3.13
2022-08-08T18:11:16.001Z,2.87
2022-08-08T18:13:47.790Z,3.00
2022-08-08T18:16:20.674Z,2.67
2022-08-08T18:18:56.378Z,2.53
2022-08-08T18:21:59.071Z,2.90
2022-08-08T18:24:21.506Z,2.97
2022-08-08T18:26:54.210Z,2.53
2022-08-08T18:29:29.523Z,2.87
2022-08-08T18:32:03.528Z,3.43
2022-08-08T18:34:32.962Z,3.27
2022-08-08T18:37:08.277Z,3.13
2022-08-08T18:39:38.595Z,2.97
2022-08-08T18:42:15.952Z,3.00
2022-08-08T18:44:55.702Z,3.40
2022-08-08T18:47:27.766Z,3.03
2022-08-08T18:49:59.929Z,3.27
2022-08-08T18:52:34.816Z,3.50
2022-08-08T18:55:10.537Z,3.30
2022-08-08T18:57:43.389Z,2.73
2022-08-08T19:00:19.659Z,3.13
2022-08-08T19:02:55.996Z,3.10
2022-08-08T19:05:38.430Z,3.83
2022-08-08T19:08:25.665Z,3.60
2022-08-08T19:10:59.934Z,3.23
2022-08-08T19:13:52.860Z,4.00
2022-08-08T19:16:19.922Z,3.27
2022-08-08T19:18:55.988Z,3.50
2022-08-08T19:21:31.105Z,3.40
2022-08-08T19:24:05.773Z,3.40
2022-08-08T19:26:37.485Z,3.10
2022-08-08T19:29:06.233Z,5.43
2022-08-08T19:31:35.881Z,3.50
2022-08-08T19:34:30.134Z,4.40
2022-08-08T19:36:58.323Z,3.30
2022-08-08T19:39:35.062Z,3.07
2022-08-08T19:42:04.389Z,3.50
2022-08-08T19:44:45.802Z,3.37
2022-08-08T19:47:14.965Z,4.80
2022-08-08T19:49:59.672Z,4.00
2022-08-08T19:52:35.140Z,3.73
2022-08-08T19:55:12.944Z,3.57
2022-08-08T19:57:45.335Z,3.70
2022-08-08T20:00:29.907Z,3.63
2022-08-08T20:03:00.800Z,3.47
2022-08-08T20:06:13.929Z,3.87
2022-08-08T20:08:29.341Z,3.10
2022-08-08T20:11:03.186Z,2.97
2022-08-08T20:14:32.012Z,3.67
2022-08-08T20:16:20.708Z,3.73
2022-08-08T20:18:52.860Z,3.37
2022-08-08T20:21:22.938Z,4.00
2022-08-08T20:23:52.357Z,3.70
2022-08-08T20:26:27.626Z,3.60
2022-08-08T20:29:00.665Z,3.53
2022-08-08T20:31:47.007Z,4.30
2022-08-08T20:34:29.869Z,4.57
2022-08-08T20:37:03.349Z,3.80
2022-08-08T20:39:41.617Z,3.90
2022-08-08T20:42:28.337Z,3.87
2022-08-08T20:44:58.220Z,4.60
2022-08-08T20:47:26.139Z,3.63
2022-08-08T20:49:54.366Z,4.30
2022-08-08T20:52:26.475Z,3.60
2022-08-08T20:54:54.060Z,4.00
2022-08-08T20:57:21.382Z,4.20
2022-08-08T20:59:48.931Z,4.10
2022-08-08T21:02:25.434Z,4.10
2022-08-08T21:05:00.512Z,4.10
2022-08-08T21:08:33.277Z,4.20
2022-08-08T21:10:20.696Z,4.87
2022-08-08T21:12:52.885Z,5.07
2022-08-08T21:16:05.359Z,4.20
2022-08-08T21:18:11.757Z,3.90
2022-08-08T21:20:41.991Z,4.67
2022-08-08T21:23:13.263Z,3.80
2022-08-08T21:25:48.886Z,4.13
2022-08-08T21:28:33.591Z,3.70
2022-08-08T21:31:21.651Z,4.33
2022-08-08T21:33:53.460Z,4.07
2022-08-08T21:36:29.267Z,3.60
2022-08-08T21:38:57.698Z,3.60
2022-08-08T21:41:38.525Z,3.83
2022-08-08T21:44:11.487Z,3.90
2022-08-08T21:48:07.426Z,3.90
2022-08-08T21:49:28.708Z,3.83
2022-08-08T21:54:32.312Z,3.80
2022-08-08T21:54:58.182Z,3.50
2022-08-08T21:57:42.504Z,3.60
2022-08-08T22:00:14.290Z,4.90
2022-08-08T22:02:44.216Z,3.30
2022-08-08T22:05:12.120Z,4.30
2022-08-08T22:07:47.377Z,3.50
2022-08-08T22:10:18.390Z,4.13
2022-08-08T22:13:18.611Z,3.40
2022-08-08T22:15:59.488Z,4.67
2022-08-08T22:18:33.036Z,3.60
2022-08-08T22:21:10.802Z,4.00
2022-08-08T22:23:50.603Z,3.47
2022-08-08T22:26:29.949Z,3.20
2022-08-08T22:29:12.967Z,3.53
2022-08-08T22:31:58.398Z,3.60
2022-08-08T22:34:30.696Z,3.67
2022-08-08T22:36:57.686Z,3.00
2022-08-08T22:39:28.293Z,3.60
2022-08-08T22:42:10.164Z,3.23
2022-08-08T22:44:37.924Z,3.50
2022-08-08T22:47:17.832Z,3.50
2022-08-08T22:49:54.182Z,3.20
2022-08-08T22:52:33.404Z,3.50
2022-08-08T22:55:05.467Z,3.40
2022-08-08T22:57:44.450Z,3.70
2022-08-08T23:00:17.330Z,3.40
2022-08-08T23:02:50.371Z,3.47
2022-08-08T23:05:21.525Z,3.50
2022-08-08T23:07:57.080Z,3.10
2022-08-08T23:10:26.864Z,3.67
2022-08-08T23:12:55.082Z,3.27
2022-08-08T23:16:38.868Z,3.87
2022-08-08T23:18:11.527Z,3.90
2022-08-08T23:20:43.852Z,4.00
2022-08-08T23:23:12.588Z,4.40
2022-08-08T23:25:47.820Z,3.93
2022-08-08T23:28:18.170Z,3.53
2022-08-08T23:30:47.389Z,3.53
2022-08-08T23:33:20.987Z,3.20
2022-08-08T23:36:07.939Z,3.13
2022-08-08T23:38:41.926Z,4.03
2022-08-08T23:41:22.802Z,4.10
2022-08-08T23:43:54.323Z,3.40
2022-08-08T23:49:08.355Z,3.80
2022-08-08T23:49:15.423Z,3.20
2022-08-08T23:52:07.272Z,3.40
2022-08-08T23:54:41.629Z,3.83
2022-08-08T23:57:27.145Z,4.93
